sensor_id;sensor_type;location;lat;lon;timestamp;P1;durP1;ratioP1;P2;durP2;ratioP2
6529;SDS011;3298;42.688;23.366;2022-10-26T00:02:10;6.60;;;4.37;;
6529;SDS011;3298;42.688;23.366;2022-10-26T00:04:36;8.87;;;4.17;;
6529;SDS011;3298;42.688;23.366;2022-10-26T00:07:03;5.43;;;3.53;;
6529;SDS011;3298;42.688;23.366;2022-10-26T00:09:30;8.70;;;3.83;;
6529;SDS011;3298;42.688;23.366;2022-10-26T00:11:57;6.83;;;4.40;;
6529;SDS011;3298;42.688;23.366;2022-10-26T00:14:25;6.23;;;3.60;;
6529;SDS011;3298;42.688;23.366;2022-10-26T00:16:52;6.83;;;3.80;;
6529;SDS011;3298;42.688;23.366;2022-10-26T00:19:19;5.93;;;4.37;;
6529;SDS011;3298;42.688;23.366;2022-10-26T00:21:45;10.73;;;4.37;;
6529;SDS011;3298;42.688;23.366;2022-10-26T00:24:12;10.80;;;3.97;;
6529;SDS011;3298;42.688;23.366;2022-10-26T00:26:39;9.23;;;4.40;;
6529;SDS011;3298;42.688;23.366;2022-10-26T00:29:06;9.80;;;4.23;;
6529;SDS011;3298;42.688;23.366;2022-10-26T00:31:34;9.47;;;3.80;;
6529;SDS011;3298;42.688;23.366;2022-10-26T00:34:01;6.57;;;3.80;;
6529;SDS011;3298;42.688;23.366;2022-10-26T00:36:28;6.90;;;4.50;;
6529;SDS011;3298;42.688;23.366;2022-10-26T00:38:55;11.17;;;4.23;;
6529;SDS011;3298;42.688;23.366;2022-10-26T00:41:23;6.17;;;4.07;;
6529;SDS011;3298;42.688;23.366;2022-10-26T00:43:51;6.10;;;3.70;;
6529;SDS011;3298;42.688;23.366;2022-10-26T00:46:19;3.40;;;3.10;;
6529;SDS011;3298;42.688;23.366;2022-10-26T00:48:52;3.73;;;3.43;;
6529;SDS011;3298;42.688;23.366;2022-10-26T00:51:23;7.00;;;3.83;;
6529;SDS011;3298;42.688;23.366;2022-10-26T00:53:56;10.07;;;3.90;;
6529;SDS011;3298;42.688;23.366;2022-10-26T00:56:24;5.97;;;3.53;;
6529;SDS011;3298;42.688;23.366;2022-10-26T00:58:53;6.70;;;3.17;;
6529;SDS011;3298;42.688;23.366;2022-10-26T01:01:22;5.27;;;4.00;;
6529;SDS011;3298;42.688;23.366;2022-10-26T01:03:50;7.87;;;3.80;;
6529;SDS011;3298;42.688;23.366;2022-10-26T01:06:18;4.00;;;3.27;;
6529;SDS011;3298;42.688;23.366;2022-10-26T01:08:46;6.40;;;3.50;;
6529;SDS011;3298;42.688;23.366;2022-10-26T01:11:13;6.93;;;3.57;;
6529;SDS011;3298;42.688;23.366;2022-10-26T01:13:41;5.20;;;3.50;;
6529;SDS011;3298;42.688;23.366;2022-10-26T01:16:17;3.50;;;3.20;;
6529;SDS011;3298;42.688;23.366;2022-10-26T01:18:57;6.73;;;3.60;;
6529;SDS011;3298;42.688;23.366;2022-10-26T01:27:20;3.73;;;3.43;;
6529;SDS011;3298;42.688;23.366;2022-10-26T01:30:10;5.97;;;4.03;;
6529;SDS011;3298;42.688;23.366;2022-10-26T01:32:58;8.70;;;4.00;;
6529;SDS011;3298;42.688;23.366;2022-10-26T01:35:37;7.70;;;3.90;;
6529;SDS011;3298;42.688;23.366;2022-10-26T01:38:09;4.40;;;4.00;;
6529;SDS011;3298;42.688;23.366;2022-10-26T01:40:41;3.60;;;3.30;;
6529;SDS011;3298;42.688;23.366;2022-10-26T01:43:12;5.87;;;3.80;;
6529;SDS011;3298;42.688;23.366;2022-10-26T01:45:42;7.37;;;3.50;;
6529;SDS011;3298;42.688;23.366;2022-10-26T01:48:12;4.40;;;3.90;;
6529;SDS011;3298;42.688;23.366;2022-10-26T01:50:44;7.37;;;3.93;;
6529;SDS011;3298;42.688;23.366;2022-10-26T01:53:13;7.23;;;4.00;;
6529;SDS011;3298;42.688;23.366;2022-10-26T01:55:44;6.53;;;4.50;;
6529;SDS011;3298;42.688;23.366;2022-10-26T01:58:28;8.07;;;4.03;;
6529;SDS011;3298;42.688;23.366;2022-10-26T02:01:23;5.37;;;4.93;;
6529;SDS011;3298;42.688;23.366;2022-10-26T02:04:10;6.70;;;4.20;;
6529;SDS011;3298;42.688;23.366;2022-10-26T02:06:50;4.53;;;4.03;;
6529;SDS011;3298;42.688;23.366;2022-10-26T02:09:28;5.33;;;4.43;;
6529;SDS011;3298;42.688;23.366;2022-10-26T02:12:04;6.87;;;5.07;;
6529;SDS011;3298;42.688;23.366;2022-10-26T02:14:39;6.93;;;4.37;;
6529;SDS011;3298;42.688;23.366;2022-10-26T02:17:12;9.40;;;5.20;;
6529;SDS011;3298;42.688;23.366;2022-10-26T02:19:45;11.80;;;5.93;;
6529;SDS011;3298;42.688;23.366;2022-10-26T02:22:17;7.67;;;5.63;;
6529;SDS011;3298;42.688;23.366;2022-10-26T02:24:47;11.43;;;5.90;;
6529;SDS011;3298;42.688;23.366;2022-10-26T02:27:19;12.37;;;6.20;;
6529;SDS011;3298;42.688;23.366;2022-10-26T02:29:49;6.67;;;5.13;;
6529;SDS011;3298;42.688;23.366;2022-10-26T02:32:19;9.83;;;6.53;;
6529;SDS011;3298;42.688;23.366;2022-10-26T02:34:48;7.87;;;5.50;;
6529;SDS011;3298;42.688;23.366;2022-10-26T02:37:19;11.57;;;6.00;;
6529;SDS011;3298;42.688;23.366;2022-10-26T02:39:48;6.27;;;5.37;;
6529;SDS011;3298;42.688;23.366;2022-10-26T02:42:17;9.33;;;5.17;;
6529;SDS011;3298;42.688;23.366;2022-10-26T02:44:46;11.00;;;6.57;;
6529;SDS011;3298;42.688;23.366;2022-10-26T02:47:16;9.57;;;6.50;;
6529;SDS011;3298;42.688;23.366;2022-10-26T02:49:46;10.57;;;5.60;;
6529;SDS011;3298;42.688;23.366;2022-10-26T02:52:14;8.20;;;5.60;;
6529;SDS011;3298;42.688;23.366;2022-10-26T02:54:50;9.50;;;5.90;;
6529;SDS011;3298;42.688;23.366;2022-10-26T02:57:21;11.93;;;5.43;;
6529;SDS011;3298;42.688;23.366;2022-10-26T02:59:52;13.00;;;6.63;;
6529;SDS011;3298;42.688;23.366;2022-10-26T03:02:20;19.90;;;7.57;;
6529;SDS011;3298;42.688;23.366;2022-10-26T03:04:49;13.50;;;6.40;;
6529;SDS011;3298;42.688;23.366;2022-10-26T03:07:19;11.83;;;6.57;;
6529;SDS011;3298;42.688;23.366;2022-10-26T03:09:47;12.37;;;5.70;;
6529;SDS011;3298;42.688;23.366;2022-10-26T03:12:14;12.13;;;5.83;;
6529;SDS011;3298;42.688;23.366;2022-10-26T03:14:40;8.50;;;6.03;;
6529;SDS011;3298;42.688;23.366;2022-10-26T03:17:07;9.20;;;5.73;;
6529;SDS011;3298;42.688;23.366;2022-10-26T03:19:34;12.50;;;5.17;;
6529;SDS011;3298;42.688;23.366;2022-10-26T03:22:02;6.87;;;5.53;;
6529;SDS011;3298;42.688;23.366;2022-10-26T03:24:29;11.50;;;6.03;;
6529;SDS011;3298;42.688;23.366;2022-10-26T03:26:55;6.13;;;5.40;;
6529;SDS011;3298;42.688;23.366;2022-10-26T03:29:22;5.23;;;4.60;;
6529;SDS011;3298;42.688;23.366;2022-10-26T03:31:49;9.03;;;5.13;;
6529;SDS011;3298;42.688;23.366;2022-10-26T03:34:18;8.00;;;4.93;;
6529;SDS011;3298;42.688;23.366;2022-10-26T03:36:45;5.07;;;4.63;;
6529;SDS011;3298;42.688;23.366;2022-10-26T03:39:13;5.60;;;5.10;;
6529;SDS011;3298;42.688;23.366;2022-10-26T03:41:40;5.40;;;4.70;;
6529;SDS011;3298;42.688;23.366;2022-10-26T03:44:08;5.63;;;5.07;;
6529;SDS011;3298;42.688;23.366;2022-10-26T03:46:35;8.70;;;4.97;;
6529;SDS011;3298;42.688;23.366;2022-10-26T03:49:01;6.17;;;4.87;;
6529;SDS011;3298;42.688;23.366;2022-10-26T03:51:28;6.67;;;4.00;;
6529;SDS011;3298;42.688;23.366;2022-10-26T03:53:55;6.60;;;6.00;;
6529;SDS011;3298;42.688;23.366;2022-10-26T03:56:23;6.20;;;5.20;;
6529;SDS011;3298;42.688;23.366;2022-10-26T03:58:50;7.40;;;4.87;;
6529;SDS011;3298;42.688;23.366;2022-10-26T04:01:17;7.97;;;4.37;;
6529;SDS011;3298;42.688;23.366;2022-10-26T04:03:44;16.70;;;4.77;;
6529;SDS011;3298;42.688;23.366;2022-10-26T04:06:11;4.40;;;4.00;;
6529;SDS011;3298;42.688;23.366;2022-10-26T04:08:38;13.13;;;5.30;;
6529;SDS011;3298;42.688;23.366;2022-10-26T04:11:04;16.03;;;5.33;;
6529;SDS011;3298;42.688;23.366;2022-10-26T04:13:32;6.20;;;5.00;;
6529;SDS011;3298;42.688;23.366;2022-10-26T04:15:59;8.87;;;5.70;;
6529;SDS011;3298;42.688;23.366;2022-10-26T04:18:26;14.10;;;6.40;;
6529;SDS011;3298;42.688;23.366;2022-10-26T04:20:53;11.73;;;7.37;;
6529;SDS011;3298;42.688;23.366;2022-10-26T04:23:20;16.73;;;7.10;;
6529;SDS011;3298;42.688;23.366;2022-10-26T04:25:47;15.33;;;6.80;;
6529;SDS011;3298;42.688;23.366;2022-10-26T04:28:14;10.63;;;6.00;;
6529;SDS011;3298;42.688;23.366;2022-10-26T04:30:42;12.57;;;6.93;;
6529;SDS011;3298;42.688;23.366;2022-10-26T04:33:09;10.37;;;6.83;;
6529;SDS011;3298;42.688;23.366;2022-10-26T04:35:36;15.33;;;8.63;;
6529;SDS011;3298;42.688;23.366;2022-10-26T04:38:03;14.90;;;7.40;;
6529;SDS011;3298;42.688;23.366;2022-10-26T04:40:31;14.30;;;6.90;;
6529;SDS011;3298;42.688;23.366;2022-10-26T04:42:59;19.27;;;6.77;;
6529;SDS011;3298;42.688;23.366;2022-10-26T04:45:26;12.67;;;7.20;;
6529;SDS011;3298;42.688;23.366;2022-10-26T04:47:59;11.23;;;7.63;;
6529;SDS011;3298;42.688;23.366;2022-10-26T04:50:27;12.40;;;7.43;;
6529;SDS011;3298;42.688;23.366;2022-10-26T04:52:54;16.13;;;7.10;;
6529;SDS011;3298;42.688;23.366;2022-10-26T04:55:21;10.90;;;7.30;;
6529;SDS011;3298;42.688;23.366;2022-10-26T04:57:48;7.30;;;6.57;;
6529;SDS011;3298;42.688;23.366;2022-10-26T05:00:15;12.87;;;8.60;;
6529;SDS011;3298;42.688;23.366;2022-10-26T05:02:42;11.87;;;7.17;;
6529;SDS011;3298;42.688;23.366;2022-10-26T05:05:11;13.67;;;7.17;;
6529;SDS011;3298;42.688;23.366;2022-10-26T05:07:37;16.30;;;7.73;;
6529;SDS011;3298;42.688;23.366;2022-10-26T05:10:04;14.13;;;7.77;;
6529;SDS011;3298;42.688;23.366;2022-10-26T05:12:32;13.13;;;7.23;;
6529;SDS011;3298;42.688;23.366;2022-10-26T05:14:59;10.70;;;6.30;;
6529;SDS011;3298;42.688;23.366;2022-10-26T05:17:25;9.73;;;6.37;;
6529;SDS011;3298;42.688;23.366;2022-10-26T05:19:53;15.83;;;7.57;;
6529;SDS011;3298;42.688;23.366;2022-10-26T05:22:23;8.37;;;6.97;;
6529;SDS011;3298;42.688;23.366;2022-10-26T05:24:50;13.77;;;7.33;;
6529;SDS011;3298;42.688;23.366;2022-10-26T05:27:17;9.90;;;6.97;;
6529;SDS011;3298;42.688;23.366;2022-10-26T05:29:44;8.17;;;7.17;;
6529;SDS011;3298;42.688;23.366;2022-10-26T05:32:11;17.80;;;6.97;;
6529;SDS011;3298;42.688;23.366;2022-10-26T05:34:38;13.77;;;7.97;;
6529;SDS011;3298;42.688;23.366;2022-10-26T05:37:05;18.00;;;7.83;;
6529;SDS011;3298;42.688;23.366;2022-10-26T05:39:33;12.57;;;8.57;;
6529;SDS011;3298;42.688;23.366;2022-10-26T05:41:59;21.33;;;9.37;;
6529;SDS011;3298;42.688;23.366;2022-10-26T05:44:26;27.17;;;9.27;;
6529;SDS011;3298;42.688;23.366;2022-10-26T05:46:53;21.73;;;9.57;;
6529;SDS011;3298;42.688;23.366;2022-10-26T05:49:20;13.37;;;8.63;;
6529;SDS011;3298;42.688;23.366;2022-10-26T05:51:46;12.73;;;8.40;;
6529;SDS011;3298;42.688;23.366;2022-10-26T05:54:13;13.03;;;8.47;;
6529;SDS011;3298;42.688;23.366;2022-10-26T05:56:42;12.00;;;8.33;;
6529;SDS011;3298;42.688;23.366;2022-10-26T05:59:10;13.60;;;9.33;;
6529;SDS011;3298;42.688;23.366;2022-10-26T06:01:43;20.03;;;9.53;;
6529;SDS011;3298;42.688;23.366;2022-10-26T06:04:21;17.20;;;9.63;;
6529;SDS011;3298;42.688;23.366;2022-10-26T06:06:55;17.93;;;9.17;;
6529;SDS011;3298;42.688;23.366;2022-10-26T06:09:23;18.20;;;9.63;;
6529;SDS011;3298;42.688;23.366;2022-10-26T06:11:51;28.80;;;10.10;;
6529;SDS011;3298;42.688;23.366;2022-10-26T06:14:19;17.83;;;9.50;;
6529;SDS011;3298;42.688;23.366;2022-10-26T06:16:50;19.23;;;10.37;;
6529;SDS011;3298;42.688;23.366;2022-10-26T06:19:31;21.37;;;11.20;;
6529;SDS011;3298;42.688;23.366;2022-10-26T06:22:11;24.50;;;10.67;;
6529;SDS011;3298;42.688;23.366;2022-10-26T06:24:48;19.80;;;10.47;;
6529;SDS011;3298;42.688;23.366;2022-10-26T06:27:26;22.97;;;11.63;;
6529;SDS011;3298;42.688;23.366;2022-10-26T06:30:02;15.53;;;9.27;;
6529;SDS011;3298;42.688;23.366;2022-10-26T06:32:31;13.60;;;9.07;;
6529;SDS011;3298;42.688;23.366;2022-10-26T06:35:00;9.13;;;8.07;;
6529;SDS011;3298;42.688;23.366;2022-10-26T06:37:38;17.53;;;10.30;;
6529;SDS011;3298;42.688;23.366;2022-10-26T06:40:07;18.87;;;9.37;;
6529;SDS011;3298;42.688;23.366;2022-10-26T06:42:38;11.53;;;10.13;;
6529;SDS011;3298;42.688;23.366;2022-10-26T06:45:09;19.07;;;10.83;;
6529;SDS011;3298;42.688;23.366;2022-10-26T06:47:38;16.57;;;9.70;;
6529;SDS011;3298;42.688;23.366;2022-10-26T06:50:11;23.40;;;10.27;;
6529;SDS011;3298;42.688;23.366;2022-10-26T06:52:52;17.93;;;10.23;;
6529;SDS011;3298;42.688;23.366;2022-10-26T06:55:26;18.67;;;9.20;;
6529;SDS011;3298;42.688;23.366;2022-10-26T06:58:06;18.83;;;10.83;;
6529;SDS011;3298;42.688;23.366;2022-10-26T07:00:36;15.53;;;10.77;;
6529;SDS011;3298;42.688;23.366;2022-10-26T07:03:05;26.30;;;12.60;;
6529;SDS011;3298;42.688;23.366;2022-10-26T07:05:32;19.23;;;10.03;;
6529;SDS011;3298;42.688;23.366;2022-10-26T07:07:59;17.47;;;11.03;;
6529;SDS011;3298;42.688;23.366;2022-10-26T07:10:26;18.77;;;11.27;;
6529;SDS011;3298;42.688;23.366;2022-10-26T07:12:52;18.10;;;10.10;;
6529;SDS011;3298;42.688;23.366;2022-10-26T07:15:21;14.50;;;8.80;;
6529;SDS011;3298;42.688;23.366;2022-10-26T07:17:48;17.77;;;9.30;;
6529;SDS011;3298;42.688;23.366;2022-10-26T07:20:15;16.53;;;8.23;;
6529;SDS011;3298;42.688;23.366;2022-10-26T07:22:42;17.50;;;8.10;;
6529;SDS011;3298;42.688;23.366;2022-10-26T07:25:10;8.23;;;5.77;;
6529;SDS011;3298;42.688;23.366;2022-10-26T07:27:37;6.23;;;5.73;;
6529;SDS011;3298;42.688;23.366;2022-10-26T07:30:04;5.60;;;5.10;;
6529;SDS011;3298;42.688;23.366;2022-10-26T07:32:33;7.40;;;5.20;;
6529;SDS011;3298;42.688;23.366;2022-10-26T07:35:00;8.53;;;5.93;;
6529;SDS011;3298;42.688;23.366;2022-10-26T07:37:26;10.53;;;5.27;;
6529;SDS011;3298;42.688;23.366;2022-10-26T07:39:53;4.97;;;4.13;;
6529;SDS011;3298;42.688;23.366;2022-10-26T07:42:20;6.07;;;5.50;;
6529;SDS011;3298;42.688;23.366;2022-10-26T07:44:47;12.10;;;5.43;;
6529;SDS011;3298;42.688;23.366;2022-10-26T07:47:14;6.80;;;6.10;;
6529;SDS011;3298;42.688;23.366;2022-10-26T07:49:42;6.17;;;5.10;;
6529;SDS011;3298;42.688;23.366;2022-10-26T07:52:08;8.13;;;4.93;;
6529;SDS011;3298;42.688;23.366;2022-10-26T07:54:35;8.23;;;4.97;;
6529;SDS011;3298;42.688;23.366;2022-10-26T07:57:03;5.53;;;5.03;;
6529;SDS011;3298;42.688;23.366;2022-10-26T07:59:29;7.33;;;4.80;;
6529;SDS011;3298;42.688;23.366;2022-10-26T08:01:56;6.03;;;5.07;;
6529;SDS011;3298;42.688;23.366;2022-10-26T08:04:23;5.37;;;4.87;;
6529;SDS011;3298;42.688;23.366;2022-10-26T08:06:51;7.07;;;5.50;;
6529;SDS011;3298;42.688;23.366;2022-10-26T08:09:18;5.70;;;5.20;;
6529;SDS011;3298;42.688;23.366;2022-10-26T08:11:45;5.60;;;5.10;;
6529;SDS011;3298;42.688;23.366;2022-10-26T08:14:12;7.90;;;5.07;;
6529;SDS011;3298;42.688;23.366;2022-10-26T08:16:39;6.67;;;4.70;;
6529;SDS011;3298;42.688;23.366;2022-10-26T08:19:06;5.87;;;4.77;;
6529;SDS011;3298;42.688;23.366;2022-10-26T08:21:33;7.63;;;4.83;;
6529;SDS011;3298;42.688;23.366;2022-10-26T08:24:01;6.03;;;4.57;;
6529;SDS011;3298;42.688;23.366;2022-10-26T08:26:28;7.87;;;5.00;;
6529;SDS011;3298;42.688;23.366;2022-10-26T08:28:55;5.87;;;4.17;;
6529;SDS011;3298;42.688;23.366;2022-10-26T08:31:22;4.27;;;3.90;;
6529;SDS011;3298;42.688;23.366;2022-10-26T08:33:49;7.83;;;3.90;;
6529;SDS011;3298;42.688;23.366;2022-10-26T08:36:16;9.57;;;3.70;;
6529;SDS011;3298;42.688;23.366;2022-10-26T08:38:48;7.73;;;4.17;;
6529;SDS011;3298;42.688;23.366;2022-10-26T08:41:16;3.33;;;3.03;;
6529;SDS011;3298;42.688;23.366;2022-10-26T08:43:46;6.77;;;3.47;;
6529;SDS011;3298;42.688;23.366;2022-10-26T08:46:18;6.30;;;4.10;;
6529;SDS011;3298;42.688;23.366;2022-10-26T08:48:49;7.33;;;3.13;;
6529;SDS011;3298;42.688;23.366;2022-10-26T08:51:21;3.97;;;3.63;;
6529;SDS011;3298;42.688;23.366;2022-10-26T08:53:53;5.20;;;3.27;;
6529;SDS011;3298;42.688;23.366;2022-10-26T08:56:26;3.37;;;3.17;;
6529;SDS011;3298;42.688;23.366;2022-10-26T08:59:02;7.47;;;3.67;;
6529;SDS011;3298;42.688;23.366;2022-10-26T09:01:35;3.27;;;3.07;;
6529;SDS011;3298;42.688;23.366;2022-10-26T09:04:02;3.20;;;2.90;;
6529;SDS011;3298;42.688;23.366;2022-10-26T09:06:30;4.43;;;3.67;;
6529;SDS011;3298;42.688;23.366;2022-10-26T09:09:09;6.33;;;5.80;;
6529;SDS011;3298;42.688;23.366;2022-10-26T09:11:50;3.67;;;3.47;;
6529;SDS011;3298;42.688;23.366;2022-10-26T09:14:29;4.30;;;2.70;;
6529;SDS011;3298;42.688;23.366;2022-10-26T09:17:06;3.93;;;2.97;;
6529;SDS011;3298;42.688;23.366;2022-10-26T09:19:53;5.93;;;2.60;;
6529;SDS011;3298;42.688;23.366;2022-10-26T09:22:32;3.57;;;2.43;;
6529;SDS011;3298;42.688;23.366;2022-10-26T09:25:11;3.07;;;2.50;;
6529;SDS011;3298;42.688;23.366;2022-10-26T09:27:46;2.50;;;2.30;;
6529;SDS011;3298;42.688;23.366;2022-10-26T09:30:16;5.07;;;2.33;;
6529;SDS011;3298;42.688;23.366;2022-10-26T09:32:45;2.83;;;2.17;;
6529;SDS011;3298;42.688;23.366;2022-10-26T09:35:14;2.47;;;2.27;;
6529;SDS011;3298;42.688;23.366;2022-10-26T09:37:46;3.40;;;2.00;;
6529;SDS011;3298;42.688;23.366;2022-10-26T09:40:17;2.57;;;2.37;;
6529;SDS011;3298;42.688;23.366;2022-10-26T09:42:53;1.80;;;1.70;;
6529;SDS011;3298;42.688;23.366;2022-10-26T09:45:25;2.47;;;1.57;;
6529;SDS011;3298;42.688;23.366;2022-10-26T09:47:58;1.87;;;1.70;;
6529;SDS011;3298;42.688;23.366;2022-10-26T09:50:32;2.10;;;2.00;;
6529;SDS011;3298;42.688;23.366;2022-10-26T09:53:00;2.20;;;2.00;;
6529;SDS011;3298;42.688;23.366;2022-10-26T09:55:27;2.23;;;2.03;;
6529;SDS011;3298;42.688;23.366;2022-10-26T09:57:58;2.83;;;1.93;;
6529;SDS011;3298;42.688;23.366;2022-10-26T10:00:27;2.07;;;1.97;;
6529;SDS011;3298;42.688;23.366;2022-10-26T10:02:55;2.50;;;1.90;;
6529;SDS011;3298;42.688;23.366;2022-10-26T10:05:24;11.03;;;1.93;;
6529;SDS011;3298;42.688;23.366;2022-10-26T10:08:07;4.37;;;1.50;;
6529;SDS011;3298;42.688;23.366;2022-10-26T10:10:36;3.67;;;1.73;;
6529;SDS011;3298;42.688;23.366;2022-10-26T10:13:14;4.73;;;2.07;;
6529;SDS011;3298;42.688;23.366;2022-10-26T10:15:49;5.23;;;3.00;;
6529;SDS011;3298;42.688;23.366;2022-10-26T10:18:19;4.47;;;3.40;;
6529;SDS011;3298;42.688;23.366;2022-10-26T10:20:50;2.63;;;1.23;;
6529;SDS011;3298;42.688;23.366;2022-10-26T10:23:26;1.50;;;1.30;;
6529;SDS011;3298;42.688;23.366;2022-10-26T10:26:02;3.03;;;1.40;;
6529;SDS011;3298;42.688;23.366;2022-10-26T10:28:33;2.73;;;1.53;;
6529;SDS011;3298;42.688;23.366;2022-10-26T10:31:01;3.27;;;1.80;;
6529;SDS011;3298;42.688;23.366;2022-10-26T10:33:36;2.47;;;1.33;;
6529;SDS011;3298;42.688;23.366;2022-10-26T10:36:06;1.73;;;1.47;;
6529;SDS011;3298;42.688;23.366;2022-10-26T10:38:39;3.80;;;1.20;;
6529;SDS011;3298;42.688;23.366;2022-10-26T10:41:17;4.10;;;1.93;;
6529;SDS011;3298;42.688;23.366;2022-10-26T10:43:52;2.93;;;1.50;;
6529;SDS011;3298;42.688;23.366;2022-10-26T10:46:22;1.33;;;1.23;;
6529;SDS011;3298;42.688;23.366;2022-10-26T10:48:52;5.53;;;1.43;;
6529;SDS011;3298;42.688;23.366;2022-10-26T10:51:27;2.50;;;1.47;;
6529;SDS011;3298;42.688;23.366;2022-10-26T10:54:00;2.70;;;1.50;;
6529;SDS011;3298;42.688;23.366;2022-10-26T10:56:29;2.97;;;1.73;;
6529;SDS011;3298;42.688;23.366;2022-10-26T10:59:14;5.03;;;1.37;;
6529;SDS011;3298;42.688;23.366;2022-10-26T11:01:55;1.47;;;1.20;;
6529;SDS011;3298;42.688;23.366;2022-10-26T11:04:38;2.63;;;1.60;;
6529;SDS011;3298;42.688;23.366;2022-10-26T11:07:18;1.47;;;1.37;;
6529;SDS011;3298;42.688;23.366;2022-10-26T11:09:46;3.33;;;1.40;;
6529;SDS011;3298;42.688;23.366;2022-10-26T11:12:17;1.27;;;1.27;;
6529;SDS011;3298;42.688;23.366;2022-10-26T11:14:49;4.47;;;1.50;;
6529;SDS011;3298;42.688;23.366;2022-10-26T11:17:23;2.30;;;1.70;;
6529;SDS011;3298;42.688;23.366;2022-10-26T11:19:53;2.20;;;1.77;;
6529;SDS011;3298;42.688;23.366;2022-10-26T11:22:23;2.17;;;1.73;;
6529;SDS011;3298;42.688;23.366;2022-10-26T11:24:53;1.50;;;1.40;;
6529;SDS011;3298;42.688;23.366;2022-10-26T11:27:24;2.97;;;1.13;;
6529;SDS011;3298;42.688;23.366;2022-10-26T11:30:00;1.30;;;1.20;;
6529;SDS011;3298;42.688;23.366;2022-10-26T11:32:31;2.63;;;1.20;;
6529;SDS011;3298;42.688;23.366;2022-10-26T11:35:03;1.30;;;1.20;;
6529;SDS011;3298;42.688;23.366;2022-10-26T11:37:37;5.20;;;1.23;;
6529;SDS011;3298;42.688;23.366;2022-10-26T11:40:14;0.93;;;0.93;;
6529;SDS011;3298;42.688;23.366;2022-10-26T11:42:50;1.50;;;1.40;;
6529;SDS011;3298;42.688;23.366;2022-10-26T11:45:27;1.40;;;1.30;;
6529;SDS011;3298;42.688;23.366;2022-10-26T11:47:56;1.20;;;1.20;;
6529;SDS011;3298;42.688;23.366;2022-10-26T11:50:31;2.80;;;1.00;;
6529;SDS011;3298;42.688;23.366;2022-10-26T11:52:59;1.23;;;1.13;;
6529;SDS011;3298;42.688;23.366;2022-10-26T11:55:31;1.67;;;1.57;;
6529;SDS011;3298;42.688;23.366;2022-10-26T11:57:58;1.23;;;1.13;;
6529;SDS011;3298;42.688;23.366;2022-10-26T12:00:28;3.10;;;1.27;;
6529;SDS011;3298;42.688;23.366;2022-10-26T12:03:00;2.20;;;1.00;;
6529;SDS011;3298;42.688;23.366;2022-10-26T12:05:32;1.23;;;1.10;;
6529;SDS011;3298;42.688;23.366;2022-10-26T12:08:10;0.80;;;0.80;;
6529;SDS011;3298;42.688;23.366;2022-10-26T12:10:42;1.50;;;0.97;;
6529;SDS011;3298;42.688;23.366;2022-10-26T12:13:18;0.50;;;0.50;;
6529;SDS011;3298;42.688;23.366;2022-10-26T12:15:55;3.03;;;0.87;;
6529;SDS011;3298;42.688;23.366;2022-10-26T12:18:29;0.80;;;0.80;;
6529;SDS011;3298;42.688;23.366;2022-10-26T12:21:03;3.87;;;3.57;;
6529;SDS011;3298;42.688;23.366;2022-10-26T12:23:34;1.33;;;1.23;;
6529;SDS011;3298;42.688;23.366;2022-10-26T12:29:29;1.47;;;0.80;;
6529;SDS011;3298;42.688;23.366;2022-10-26T12:32:02;2.07;;;0.73;;
6529;SDS011;3298;42.688;23.366;2022-10-26T12:34:57;0.50;;;0.50;;
6529;SDS011;3298;42.688;23.366;2022-10-26T12:37:31;0.43;;;0.40;;
6529;SDS011;3298;42.688;23.366;2022-10-26T12:52:32;0.50;;;0.50;;
6529;SDS011;3298;42.688;23.366;2022-10-26T12:55:22;0.80;;;0.80;;
6529;SDS011;3298;42.688;23.366;2022-10-26T13:01:22;0.50;;;0.50;;
6529;SDS011;3298;42.688;23.366;2022-10-26T13:04:09;0.60;;;0.50;;
6529;SDS011;3298;42.688;23.366;2022-10-26T13:09:45;0.73;;;0.73;;
6529;SDS011;3298;42.688;23.366;2022-10-26T13:12:19;0.80;;;0.80;;
6529;SDS011;3298;42.688;23.366;2022-10-26T13:14:53;0.70;;;0.70;;
6529;SDS011;3298;42.688;23.366;2022-10-26T13:17:24;1.13;;;0.90;;
6529;SDS011;3298;42.688;23.366;2022-10-26T13:19:54;1.53;;;1.43;;
6529;SDS011;3298;42.688;23.366;2022-10-26T13:22:22;2.70;;;2.50;;
6529;SDS011;3298;42.688;23.366;2022-10-26T13:24:52;4.33;;;3.40;;
6529;SDS011;3298;42.688;23.366;2022-10-26T13:27:41;5.30;;;4.80;;
6529;SDS011;3298;42.688;23.366;2022-10-26T13:30:20;3.60;;;2.40;;
6529;SDS011;3298;42.688;23.366;2022-10-26T13:33:02;2.87;;;2.67;;
6529;SDS011;3298;42.688;23.366;2022-10-26T13:35:38;1.90;;;1.80;;
6529;SDS011;3298;42.688;23.366;2022-10-26T13:38:08;2.10;;;1.50;;
6529;SDS011;3298;42.688;23.366;2022-10-26T13:40:39;2.20;;;1.60;;
6529;SDS011;3298;42.688;23.366;2022-10-26T13:43:06;1.40;;;1.30;;
6529;SDS011;3298;42.688;23.366;2022-10-26T13:45:40;3.13;;;2.90;;
6529;SDS011;3298;42.688;23.366;2022-10-26T13:48:15;3.93;;;1.00;;
6529;SDS011;3298;42.688;23.366;2022-10-26T13:50:46;1.67;;;0.97;;
6529;SDS011;3298;42.688;23.366;2022-10-26T13:53:15;4.53;;;1.07;;
6529;SDS011;3298;42.688;23.366;2022-10-26T13:55:51;1.43;;;1.20;;
6529;SDS011;3298;42.688;23.366;2022-10-26T13:58:21;1.00;;;1.00;;
6529;SDS011;3298;42.688;23.366;2022-10-26T14:01:01;0.60;;;0.60;;
6529;SDS011;3298;42.688;23.366;2022-10-26T14:03:36;0.63;;;0.63;;
6529;SDS011;3298;42.688;23.366;2022-10-26T14:06:05;2.00;;;0.50;;
6529;SDS011;3298;42.688;23.366;2022-10-26T14:08:39;0.67;;;0.63;;
6529;SDS011;3298;42.688;23.366;2022-10-26T14:11:08;0.83;;;0.83;;
6529;SDS011;3298;42.688;23.366;2022-10-26T14:13:38;0.70;;;0.70;;
6529;SDS011;3298;42.688;23.366;2022-10-26T14:16:06;0.73;;;0.73;;
6529;SDS011;3298;42.688;23.366;2022-10-26T14:18:35;4.77;;;1.10;;
6529;SDS011;3298;42.688;23.366;2022-10-26T14:21:04;1.03;;;0.53;;
6529;SDS011;3298;42.688;23.366;2022-10-26T14:23:33;4.63;;;0.80;;
6529;SDS011;3298;42.688;23.366;2022-10-26T14:26:01;0.57;;;0.57;;
6529;SDS011;3298;42.688;23.366;2022-10-26T14:28:30;0.87;;;0.80;;
6529;SDS011;3298;42.688;23.366;2022-10-26T14:31:10;0.70;;;0.70;;
6529;SDS011;3298;42.688;23.366;2022-10-26T14:33:37;0.77;;;0.77;;
6529;SDS011;3298;42.688;23.366;2022-10-26T14:36:04;0.87;;;0.70;;
6529;SDS011;3298;42.688;23.366;2022-10-26T14:38:34;0.93;;;0.93;;
6529;SDS011;3298;42.688;23.366;2022-10-26T14:41:08;2.50;;;1.20;;
6529;SDS011;3298;42.688;23.366;2022-10-26T14:43:37;1.00;;;1.00;;
6529;SDS011;3298;42.688;23.366;2022-10-26T14:46:04;3.40;;;1.53;;
6529;SDS011;3298;42.688;23.366;2022-10-26T14:48:32;1.17;;;1.13;;
6529;SDS011;3298;42.688;23.366;2022-10-26T14:51:04;1.43;;;0.80;;
6529;SDS011;3298;42.688;23.366;2022-10-26T14:53:36;1.20;;;1.10;;
6529;SDS011;3298;42.688;23.366;2022-10-26T14:56:05;1.33;;;1.23;;
6529;SDS011;3298;42.688;23.366;2022-10-26T14:58:47;1.30;;;1.20;;
6529;SDS011;3298;42.688;23.366;2022-10-26T15:01:24;2.43;;;1.27;;
6529;SDS011;3298;42.688;23.366;2022-10-26T15:03:53;3.53;;;1.37;;
6529;SDS011;3298;42.688;23.366;2022-10-26T15:06:37;1.60;;;1.50;;
6529;SDS011;3298;42.688;23.366;2022-10-26T15:09:06;1.57;;;1.47;;
6529;SDS011;3298;42.688;23.366;2022-10-26T15:11:53;2.60;;;1.87;;
6529;SDS011;3298;42.688;23.366;2022-10-26T15:14:21;2.77;;;1.60;;
6529;SDS011;3298;42.688;23.366;2022-10-26T15:16:49;1.43;;;1.33;;
6529;SDS011;3298;42.688;23.366;2022-10-26T15:19:18;1.10;;;0.90;;
6529;SDS011;3298;42.688;23.366;2022-10-26T15:21:48;2.73;;;1.20;;
6529;SDS011;3298;42.688;23.366;2022-10-26T15:24:28;3.53;;;1.70;;
6529;SDS011;3298;42.688;23.366;2022-10-26T15:26:57;1.73;;;1.40;;
6529;SDS011;3298;42.688;23.366;2022-10-26T15:29:34;2.43;;;1.10;;
6529;SDS011;3298;42.688;23.366;2022-10-26T15:32:16;5.83;;;1.10;;
6529;SDS011;3298;42.688;23.366;2022-10-26T15:34:46;5.17;;;1.47;;
6529;SDS011;3298;42.688;23.366;2022-10-26T15:37:15;4.90;;;1.53;;
6529;SDS011;3298;42.688;23.366;2022-10-26T15:39:42;2.20;;;1.50;;
6529;SDS011;3298;42.688;23.366;2022-10-26T15:42:10;5.17;;;1.77;;
6529;SDS011;3298;42.688;23.366;2022-10-26T15:44:40;2.60;;;1.53;;
6529;SDS011;3298;42.688;23.366;2022-10-26T15:47:08;7.77;;;1.67;;
6529;SDS011;3298;42.688;23.366;2022-10-26T15:49:44;2.47;;;2.00;;